createdAt,value
2024-04-30T00:01:34.044Z,101641.19
2024-04-30T00:04:00.924Z,101649.22
2024-04-30T00:06:32.863Z,101643.22
2024-04-30T00:08:59.490Z,101649.00
2024-04-30T00:11:28.753Z,101638.75
2024-04-30T00:13:55.448Z,101635.84
2024-04-30T00:16:24.749Z,101636.03
2024-04-30T00:18:51.392Z,101634.91
2024-04-30T00:21:20.622Z,101633.88
2024-04-30T00:23:49.866Z,101638.94
2024-04-30T00:26:19.099Z,101625.56
2024-04-30T00:28:46.947Z,101627.25
2024-04-30T00:31:16.201Z,101624.09
2024-04-30T00:33:42.837Z,101621.34
2024-04-30T00:36:12.102Z,101622.09
2024-04-30T00:38:38.728Z,101619.22
2024-04-30T00:41:10.504Z,101623.50
2024-04-30T00:43:37.355Z,101622.06
2024-04-30T00:46:07.169Z,101615.47
2024-04-30T00:48:36.441Z,101614.44
2024-04-30T00:51:09.361Z,101609.38
2024-04-30T00:53:36.105Z,101607.59
2024-04-30T00:56:05.609Z,101605.75
2024-04-30T00:58:36.157Z,101591.81
2024-04-30T01:01:06.625Z,101595.94
2024-04-30T01:03:33.638Z,101600.38
2024-04-30T01:06:03.014Z,101591.13
2024-04-30T01:08:29.678Z,101590.97
2024-04-30T01:11:00.191Z,101587.38
2024-04-30T01:13:28.802Z,101589.34
2024-04-30T01:16:00.700Z,101583.81
2024-04-30T01:18:27.381Z,101586.69
2024-04-30T01:20:56.638Z,101577.19
2024-04-30T01:23:25.897Z,101578.00
2024-04-30T01:25:55.246Z,101587.34
2024-04-30T01:28:21.965Z,101586.47
2024-04-30T01:30:51.396Z,101581.31
2024-04-30T01:33:18.616Z,101580.28
2024-04-30T01:35:47.812Z,101578.00
2024-04-30T01:38:14.621Z,101569.72
2024-04-30T01:40:46.437Z,101563.31
2024-04-30T01:43:13.114Z,101574.41
2024-04-30T01:45:42.368Z,101572.31
2024-04-30T01:48:09.077Z,101561.97
2024-04-30T01:50:39.181Z,101566.97
2024-04-30T01:53:05.831Z,101565.13
2024-04-30T01:55:35.093Z,101559.56
2024-04-30T01:58:04.738Z,101566.91
2024-04-30T02:00:34.085Z,101575.94
2024-04-30T02:03:00.734Z,101559.66
2024-04-30T02:05:30.045Z,101559.63
2024-04-30T02:07:56.768Z,101560.72
2024-04-30T02:10:26.061Z,101559.56
2024-04-30T02:12:52.700Z,101551.69
2024-04-30T02:15:24.511Z,101553.63
2024-04-30T02:17:51.585Z,101542.66
2024-04-30T02:20:20.803Z,101545.25
2024-04-30T02:22:47.456Z,101541.41
2024-04-30T02:25:16.768Z,101532.13
2024-04-30T02:27:43.487Z,101539.66
2024-04-30T02:30:33.471Z,101531.50
2024-04-30T02:33:21.212Z,101535.31
2024-04-30T02:35:50.500Z,101534.88
2024-04-30T02:38:19.705Z,101527.66
2024-04-30T02:40:48.928Z,101530.88
2024-04-30T02:43:18.201Z,101523.97
2024-04-30T02:45:44.857Z,101527.09
2024-04-30T02:48:17.559Z,101519.22
2024-04-30T02:50:44.219Z,101523.47
2024-04-30T02:53:13.475Z,101530.00
2024-04-30T02:55:40.160Z,101511.75
2024-04-30T02:58:09.382Z,101509.22
2024-04-30T03:00:38.608Z,101508.00
2024-04-30T03:03:05.506Z,101504.59
2024-04-30T03:05:37.341Z,101500.78
2024-04-30T03:08:05.374Z,101500.69
2024-04-30T03:10:35.028Z,101490.34
2024-04-30T03:13:01.847Z,101491.09
2024-04-30T03:15:31.086Z,101489.66
2024-04-30T03:17:57.919Z,101490.72
2024-04-30T03:20:27.530Z,101486.25
2024-04-30T03:22:56.764Z,101485.56
2024-04-30T03:25:26.007Z,101478.50
2024-04-30T03:27:52.719Z,101479.16
2024-04-30T03:30:22.144Z,101477.13
2024-04-30T03:32:49.065Z,101478.34
2024-04-30T03:35:18.946Z,101477.44
2024-04-30T03:37:48.203Z,101477.00
2024-04-30T03:40:20.041Z,101484.00
2024-04-30T03:42:52.284Z,101475.28
2024-04-30T03:45:22.982Z,101482.19
2024-04-30T03:47:52.235Z,101481.44
2024-04-30T03:50:21.473Z,101482.38
2024-04-30T03:52:48.098Z,101474.25
2024-04-30T03:55:19.962Z,101483.19
2024-04-30T03:57:46.582Z,101485.31
2024-04-30T04:00:16.402Z,101483.06
2024-04-30T04:02:43.163Z,101488.09
2024-04-30T04:05:12.427Z,101482.63
2024-04-30T04:07:39.096Z,101472.44
2024-04-30T04:10:09.160Z,101487.53
2024-04-30T04:12:57.039Z,101486.13
2024-04-30T04:15:26.232Z,101494.47
2024-04-30T04:17:55.521Z,101487.13
2024-04-30T04:20:24.759Z,101490.50
2024-04-30T04:22:53.983Z,101485.31
2024-04-30T04:25:23.190Z,101485.63
2024-04-30T04:27:52.464Z,101484.19
2024-04-30T04:30:21.638Z,101491.88
2024-04-30T04:32:48.391Z,101486.94
2024-04-30T04:35:17.927Z,101491.94
2024-04-30T04:37:45.834Z,101490.03
2024-04-30T04:40:15.207Z,101496.25
2024-04-30T04:42:41.855Z,101499.47
2024-04-30T04:45:13.657Z,101490.72
2024-04-30T04:47:40.386Z,101496.25
2024-04-30T04:50:10.740Z,101493.09
2024-04-30T04:52:38.585Z,101491.31
2024-04-30T04:55:08.336Z,101482.06
2024-04-30T04:57:35.016Z,101483.22
2024-04-30T05:00:05.551Z,101487.03
2024-04-30T05:02:34.802Z,101479.50
2024-04-30T05:05:04.108Z,101482.59
2024-04-30T05:07:31.055Z,101488.50
2024-04-30T05:10:00.425Z,101481.41
2024-04-30T05:12:27.076Z,101486.34
2024-04-30T05:14:56.394Z,101475.75
2024-04-30T05:17:23.174Z,101469.84
2024-04-30T05:19:55.049Z,101466.16
2024-04-30T05:22:21.776Z,101469.09
2024-04-30T05:24:51.094Z,101471.56
2024-04-30T05:27:17.784Z,101463.84
2024-04-30T05:29:47.085Z,101462.56
2024-04-30T05:32:13.748Z,101464.09
2024-04-30T05:34:42.993Z,101471.72
2024-04-30T05:37:12.362Z,101458.75
2024-04-30T05:39:41.595Z,101462.03
2024-04-30T05:42:09.170Z,101457.78
2024-04-30T05:44:38.392Z,101459.41
2024-04-30T05:47:05.156Z,101455.97
2024-04-30T05:49:34.717Z,101453.41
2024-04-30T05:52:01.656Z,101465.75
2024-04-30T05:54:33.441Z,101456.22
2024-04-30T05:57:00.132Z,101456.78
2024-04-30T05:59:29.796Z,101451.03
2024-04-30T06:01:56.520Z,101450.97
2024-04-30T06:04:25.934Z,101454.72
2024-04-30T06:06:52.621Z,101450.22
2024-04-30T06:09:21.842Z,101458.44
2024-04-30T06:11:52.859Z,101454.03
2024-04-30T06:14:23.962Z,101447.16
2024-04-30T06:16:51.855Z,101454.16
2024-04-30T06:19:21.105Z,101441.59
2024-04-30T06:21:47.965Z,101444.84
2024-04-30T06:24:17.230Z,101435.00
2024-04-30T06:26:44.287Z,101432.88
2024-04-30T06:29:17.102Z,101431.31
2024-04-30T06:31:43.844Z,101431.22
2024-04-30T06:34:14.432Z,101434.63
2024-04-30T06:36:41.105Z,101435.69
2024-04-30T06:39:10.348Z,101435.38
2024-04-30T06:41:37.005Z,101430.06
2024-04-30T06:44:06.253Z,101426.19
2024-04-30T06:46:35.591Z,101421.56
2024-04-30T06:49:05.821Z,101421.56
2024-04-30T06:51:34.582Z,101424.38
2024-04-30T06:54:03.822Z,101418.25
2024-04-30T06:56:30.465Z,101421.59
2024-04-30T06:58:59.648Z,101414.44
2024-04-30T07:01:28.967Z,101408.84
2024-04-30T07:03:58.225Z,101406.94
2024-04-30T07:06:27.457Z,101403.78
2024-04-30T07:08:54.080Z,101402.53
2024-04-30T07:11:23.536Z,101402.88
2024-04-30T07:13:50.212Z,101384.56
2024-04-30T07:16:19.551Z,101391.19
2024-04-30T07:18:46.789Z,101392.75
2024-04-30T07:21:18.690Z,101391.34
2024-04-30T07:23:45.358Z,101383.72
2024-04-30T07:26:16.693Z,101389.69
2024-04-30T07:28:44.954Z,101384.22
2024-04-30T07:31:14.176Z,101375.13
2024-04-30T07:33:42.777Z,101376.47
2024-04-30T07:36:12.134Z,101375.00
2024-04-30T07:38:41.367Z,101373.47
2024-04-30T07:41:10.850Z,101374.03
2024-04-30T07:43:37.751Z,101366.97
2024-04-30T07:46:07.539Z,101370.03
2024-04-30T07:48:34.316Z,101370.38
2024-04-30T07:51:03.666Z,101358.81
2024-04-30T07:53:30.325Z,101356.56
2024-04-30T07:56:02.136Z,101352.03
2024-04-30T07:58:28.894Z,101362.28
2024-04-30T08:00:58.136Z,101365.38
2024-04-30T08:03:24.800Z,101349.34
2024-04-30T08:05:56.329Z,101351.53
2024-04-30T08:08:24.981Z,101351.66
2024-04-30T08:10:54.882Z,101343.09
2024-04-30T08:13:24.147Z,101343.16
2024-04-30T08:15:53.376Z,101341.41
2024-04-30T08:18:20.060Z,101341.69
2024-04-30T08:20:49.297Z,101338.91
2024-04-30T08:23:15.953Z,101335.47
2024-04-30T08:25:45.218Z,101325.75
2024-04-30T08:28:11.956Z,101338.59
2024-04-30T08:30:44.387Z,101336.00
2024-04-30T08:33:11.598Z,101338.81
2024-04-30T08:35:42.304Z,101331.00
2024-04-30T08:38:09.207Z,101335.47
2024-04-30T08:40:38.806Z,101325.84
2024-04-30T08:43:05.671Z,101331.13
2024-04-30T08:45:36.985Z,101327.94
2024-04-30T08:48:07.846Z,101313.25
2024-04-30T08:50:41.377Z,101315.81
2024-04-30T08:53:09.971Z,101311.00
2024-04-30T08:55:40.436Z,101308.69
2024-04-30T08:58:07.231Z,101311.84
2024-04-30T09:00:37.387Z,101304.72
2024-04-30T09:03:07.463Z,101303.03
2024-04-30T09:05:37.097Z,101301.22
2024-04-30T09:08:04.841Z,101295.53
2024-04-30T09:10:35.989Z,101297.91
2024-04-30T09:13:05.342Z,101288.63
2024-04-30T09:15:32.018Z,101285.84
2024-04-30T09:18:11.266Z,101286.16
2024-04-30T09:20:44.458Z,101278.00
2024-04-30T09:23:13.661Z,101274.47
2024-04-30T09:25:43.011Z,101271.88
2024-04-30T09:28:13.446Z,101273.06
2024-04-30T09:30:42.716Z,101275.13
2024-04-30T09:33:12.443Z,101264.59
2024-04-30T09:35:42.175Z,101265.63
2024-04-30T09:38:11.602Z,101263.66
2024-04-30T09:40:41.002Z,101259.53
2024-04-30T09:43:08.122Z,101253.81
2024-04-30T09:45:37.422Z,101257.59
2024-04-30T09:48:09.499Z,101246.09
2024-04-30T09:50:43.520Z,101242.03
2024-04-30T09:53:11.929Z,101228.63
2024-04-30T09:55:41.167Z,101240.41
2024-04-30T09:58:10.284Z,101241.75
2024-04-30T10:00:39.493Z,101221.72
2024-04-30T10:03:09.346Z,101219.19
2024-04-30T10:05:45.870Z,101219.16
2024-04-30T10:08:15.259Z,101217.97
2024-04-30T10:10:45.845Z,101225.22
2024-04-30T10:13:19.318Z,101209.75
2024-04-30T10:15:46.049Z,101210.38
2024-04-30T10:18:23.928Z,101204.72
2024-04-30T10:20:53.451Z,101202.34
2024-04-30T10:23:30.371Z,101195.09
2024-04-30T10:26:04.400Z,101189.06
2024-04-30T10:28:33.845Z,101195.63
2024-04-30T10:31:10.941Z,101190.25
2024-04-30T10:33:40.949Z,101179.09
2024-04-30T10:36:12.260Z,101179.69
2024-04-30T10:38:42.957Z,101188.69
2024-04-30T10:41:10.592Z,101187.28
2024-04-30T10:43:40.078Z,101178.22
2024-04-30T10:46:12.495Z,101179.59
2024-04-30T10:48:49.603Z,101167.28
2024-04-30T10:51:20.872Z,101172.78
2024-04-30T10:53:51.725Z,101176.38
2024-04-30T10:56:18.938Z,101173.44
2024-04-30T10:58:55.365Z,101175.94
2024-04-30T11:01:23.272Z,101181.03
2024-04-30T11:03:53.362Z,101181.56
2024-04-30T11:06:25.204Z,101162.84
2024-04-30T11:08:51.915Z,101175.56
2024-04-30T11:11:43.137Z,101167.13
2024-04-30T11:14:09.809Z,101156.91
2024-04-30T11:16:39.711Z,101159.66
2024-04-30T11:19:06.449Z,101154.75
2024-04-30T11:21:38.337Z,101159.53
2024-04-30T11:24:06.148Z,101148.25
2024-04-30T11:26:35.364Z,101151.16
2024-04-30T11:29:15.924Z,101138.97
2024-04-30T11:31:51.415Z,101142.56
2024-04-30T11:34:18.106Z,101137.28
2024-04-30T11:36:50.036Z,101135.47
2024-04-30T11:39:16.882Z,101143.66
2024-04-30T11:41:51.923Z,101146.84
2024-04-30T11:44:23.881Z,101138.97
2024-04-30T11:46:53.113Z,101127.84
2024-04-30T11:49:19.869Z,101130.53
2024-04-30T11:51:51.697Z,101124.22
2024-04-30T11:54:18.362Z,101137.81
2024-04-30T11:56:47.616Z,101125.13
2024-04-30T11:59:14.300Z,101124.25
2024-04-30T12:01:43.740Z,101113.84
2024-04-30T12:04:10.446Z,101120.00
2024-04-30T12:06:40.128Z,101111.13
2024-04-30T12:09:09.408Z,101099.03
2024-04-30T12:11:41.065Z,101093.00
2024-04-30T12:14:07.725Z,101094.28
2024-04-30T12:16:37.000Z,101093.22
2024-04-30T12:19:05.117Z,101096.75
2024-04-30T12:21:34.410Z,101089.38
2024-04-30T12:24:01.121Z,101081.75
2024-04-30T12:26:37.565Z,101074.81
2024-04-30T12:29:04.374Z,101069.88
2024-04-30T12:31:34.278Z,101073.25
2024-04-30T12:34:00.963Z,101066.94
2024-04-30T12:36:32.578Z,101070.31
2024-04-30T12:39:02.000Z,101054.09
2024-04-30T12:41:37.150Z,101067.84
2024-04-30T12:44:06.568Z,101054.66
2024-04-30T12:46:33.407Z,101059.34
2024-04-30T12:49:02.946Z,101057.91
2024-04-30T12:51:29.706Z,101053.69
2024-04-30T12:53:59.607Z,101066.94
2024-04-30T12:56:26.323Z,101062.25
2024-04-30T12:58:58.173Z,101063.16
2024-04-30T13:01:26.333Z,101054.81
2024-04-30T13:03:55.930Z,101045.75
2024-04-30T13:06:22.629Z,101049.31
2024-04-30T13:08:52.051Z,101049.03
2024-04-30T13:11:18.761Z,101046.06
2024-04-30T13:13:48.019Z,101051.66
2024-04-30T13:16:17.287Z,101042.06
2024-04-30T13:18:46.628Z,101036.03
2024-04-30T13:21:14.848Z,101020.34
2024-04-30T13:23:44.253Z,101027.97
2024-04-30T13:26:11.050Z,101027.63
2024-04-30T13:28:40.323Z,101030.50
2024-04-30T13:31:07.165Z,101027.78
2024-04-30T13:33:39.787Z,101021.38
2024-04-30T13:36:09.966Z,101020.91
2024-04-30T13:38:39.181Z,101022.06
2024-04-30T13:41:05.864Z,101019.25
2024-04-30T13:43:39.389Z,101023.19
2024-04-30T13:46:06.286Z,101017.81
2024-04-30T13:48:35.618Z,101017.44
2024-04-30T13:51:05.457Z,101004.78
2024-04-30T13:53:34.771Z,101002.19
2024-04-30T13:56:01.408Z,101007.38
2024-04-30T13:58:30.740Z,100999.19
2024-04-30T14:00:57.483Z,100998.91
2024-04-30T14:03:26.786Z,100993.28
2024-04-30T14:05:55.151Z,100990.19
2024-04-30T14:08:27.658Z,100978.28
2024-04-30T14:10:54.508Z,100979.06
2024-04-30T14:13:23.850Z,100977.66
2024-04-30T14:15:50.572Z,100979.09
2024-04-30T14:18:19.811Z,100981.38
2024-04-30T14:20:46.724Z,100970.75
2024-04-30T14:23:15.960Z,100965.03
2024-04-30T14:25:45.291Z,100966.34
2024-04-30T14:28:14.650Z,100959.00
2024-04-30T14:30:41.529Z,100957.63
2024-04-30T14:33:10.837Z,100952.91
2024-04-30T14:35:52.507Z,100947.72
2024-04-30T14:38:21.796Z,100952.47
2024-04-30T14:40:51.404Z,100954.47
2024-04-30T14:43:20.691Z,100958.66
2024-04-30T14:45:47.335Z,100952.22
2024-04-30T14:48:17.187Z,100959.81
2024-04-30T14:50:43.969Z,100955.44
2024-04-30T14:53:13.170Z,100955.28
2024-04-30T14:55:40.131Z,100950.81
2024-04-30T14:58:11.990Z,100960.41
2024-04-30T15:00:38.661Z,100956.50
2024-04-30T15:03:08.441Z,100948.66
2024-04-30T15:05:35.173Z,100946.06
2024-04-30T15:08:04.414Z,100949.38
2024-04-30T15:10:31.462Z,100949.38
2024-04-30T15:13:00.838Z,100944.19
2024-04-30T15:15:30.076Z,100942.59
2024-04-30T15:17:59.445Z,100945.16
2024-04-30T15:20:26.153Z,100941.34
2024-04-30T15:22:55.771Z,100944.50
2024-04-30T15:25:25.115Z,100929.72
2024-04-30T15:27:51.845Z,100934.50
2024-04-30T15:30:21.173Z,100940.63
2024-04-30T15:32:51.703Z,100920.56
2024-04-30T15:35:22.361Z,100935.66
2024-04-30T15:37:49.093Z,100937.09
2024-04-30T15:40:18.506Z,100932.56
2024-04-30T15:42:45.267Z,100927.59
2024-04-30T15:45:14.637Z,100926.63
2024-04-30T15:47:42.848Z,100919.19
2024-04-30T15:50:14.744Z,100919.75
2024-04-30T15:52:41.516Z,100918.09
2024-04-30T15:55:10.834Z,100919.13
2024-04-30T15:57:37.749Z,100913.75
2024-04-30T16:00:07.898Z,100912.84
2024-04-30T16:02:34.919Z,100907.75
2024-04-30T16:05:04.326Z,100910.66
2024-04-30T16:07:34.063Z,100908.81
2024-04-30T16:10:03.267Z,100903.38
2024-04-30T16:12:30.424Z,100898.53
2024-04-30T16:14:59.633Z,100892.00
2024-04-30T16:17:26.630Z,100894.56
2024-04-30T16:19:56.046Z,100901.63
2024-04-30T16:22:22.949Z,100900.50
2024-04-30T16:24:55.665Z,100882.81
2024-04-30T16:27:22.528Z,100890.13
2024-04-30T16:29:51.721Z,100881.38
2024-04-30T16:32:18.857Z,100887.84
2024-04-30T16:34:48.189Z,100891.38
2024-04-30T16:37:14.836Z,100891.75
2024-04-30T16:39:44.060Z,100888.75
2024-04-30T16:42:15.881Z,100886.00
2024-04-30T16:44:48.611Z,100885.69
2024-04-30T16:47:19.540Z,100881.53
2024-04-30T16:49:48.821Z,100883.09
2024-04-30T16:52:15.445Z,100876.44
2024-04-30T16:54:44.706Z,100885.19
2024-04-30T16:57:14.028Z,100882.00
2024-04-30T16:59:43.249Z,100878.34
2024-04-30T17:02:12.136Z,100880.19
2024-04-30T17:04:41.844Z,100879.47
2024-04-30T17:07:08.513Z,100871.81
2024-04-30T17:09:37.749Z,100881.84
2024-04-30T17:12:07.720Z,100869.97
2024-04-30T17:14:37.218Z,100871.94
2024-04-30T17:17:07.334Z,100870.59
2024-04-30T17:19:34.099Z,100873.09
2024-04-30T17:22:03.380Z,100868.56
2024-04-30T17:24:30.050Z,100866.38
2024-04-30T17:26:59.690Z,100870.13
2024-04-30T17:29:26.327Z,100868.44
2024-04-30T17:31:58.433Z,100870.88
2024-04-30T17:34:25.127Z,100865.66
2024-04-30T17:36:54.408Z,100867.69
2024-04-30T17:39:21.248Z,100873.19
2024-04-30T17:41:50.593Z,100874.84
2024-04-30T17:44:17.302Z,100867.53
2024-04-30T17:46:46.533Z,100873.19
2024-04-30T17:49:15.871Z,100870.66
2024-04-30T17:51:45.629Z,100865.22
2024-04-30T17:54:14.634Z,100877.78
2024-04-30T17:56:43.824Z,100867.19
2024-04-30T17:59:10.860Z,100866.47
2024-04-30T18:01:40.220Z,100866.00
2024-04-30T18:04:06.970Z,100872.06
2024-04-30T18:06:38.828Z,100874.72
2024-04-30T18:09:06.773Z,100871.25
2024-04-30T18:11:36.673Z,100873.72
2024-04-30T18:14:03.638Z,100878.44
2024-04-30T18:16:33.140Z,100882.59
2024-04-30T18:18:59.934Z,100878.44
2024-04-30T18:21:35.111Z,100873.31
2024-04-30T18:24:07.140Z,100874.31
2024-04-30T18:26:41.526Z,100879.69
2024-04-30T18:29:08.761Z,100878.44
2024-04-30T18:31:38.321Z,100876.41
2024-04-30T18:34:05.097Z,100877.78
2024-04-30T18:36:39.572Z,100882.31
2024-04-30T18:39:13.763Z,100875.16
2024-04-30T18:41:43.140Z,100876.25
2024-04-30T18:44:10.059Z,100878.16
2024-04-30T18:46:39.317Z,100881.97
2024-04-30T18:49:06.100Z,100879.56
2024-04-30T18:51:41.750Z,100887.91
2024-04-30T18:54:13.911Z,100885.41
2024-04-30T18:56:40.534Z,100884.97
2024-04-30T18:59:09.838Z,100887.78
2024-04-30T19:01:36.852Z,100879.59
2024-04-30T19:04:06.623Z,100884.41
2024-04-30T19:06:33.401Z,100886.22
2024-04-30T19:09:02.768Z,100886.31
2024-04-30T19:11:34.614Z,100886.66
2024-04-30T19:14:01.308Z,100895.00
2024-04-30T19:16:30.562Z,100892.31
2024-04-30T19:18:58.052Z,100889.75
2024-04-30T19:21:27.320Z,100886.66
2024-04-30T19:23:53.962Z,100891.16
2024-04-30T19:26:23.130Z,100887.50
2024-04-30T19:28:52.444Z,100902.09
2024-04-30T19:31:23.208Z,100903.63
2024-04-30T19:33:50.135Z,100893.81
2024-04-30T19:36:20.847Z,100893.34
2024-04-30T19:38:48.313Z,100889.13
2024-04-30T19:41:18.154Z,100887.22
2024-04-30T19:43:45.070Z,100886.47
2024-04-30T19:46:20.925Z,100889.94
2024-04-30T19:48:48.043Z,100895.03
2024-04-30T19:51:20.998Z,100889.41
2024-04-30T19:53:49.580Z,100882.44
2024-04-30T19:56:20.312Z,100891.16
2024-04-30T19:58:51.664Z,100883.81
2024-04-30T20:01:28.950Z,100879.75
2024-04-30T20:03:57.685Z,100882.44
2024-04-30T20:06:27.551Z,100897.06
2024-04-30T20:08:54.332Z,100897.75
2024-04-30T20:11:26.018Z,100885.78
2024-04-30T20:13:53.571Z,100886.88
2024-04-30T20:16:26.977Z,100881.94
2024-04-30T20:18:54.092Z,100895.19
2024-04-30T20:21:25.393Z,100890.78
2024-04-30T20:23:52.273Z,100896.75
2024-04-30T20:26:21.488Z,100889.09
2024-04-30T20:28:48.513Z,100895.25
2024-04-30T20:31:17.985Z,100896.09
2024-04-30T20:33:47.297Z,100888.97
2024-04-30T20:36:19.856Z,100907.28
2024-04-30T20:38:46.794Z,100905.16
2024-04-30T20:41:17.123Z,100908.00
2024-04-30T20:43:43.905Z,100906.84
2024-04-30T20:46:13.204Z,100908.34
2024-04-30T20:48:39.991Z,100920.44
2024-04-30T20:51:11.884Z,100920.84
2024-04-30T20:53:40.245Z,100925.03
2024-04-30T20:56:10.406Z,100929.31
2024-04-30T20:58:37.036Z,100923.53
2024-04-30T21:01:06.548Z,100921.28
2024-04-30T21:03:33.334Z,100920.06
2024-04-30T21:06:03.142Z,100915.88
2024-04-30T21:08:32.419Z,100923.25
2024-04-30T21:11:01.782Z,100924.75
2024-04-30T21:13:28.465Z,100934.75
2024-04-30T21:15:57.840Z,100930.16
2024-04-30T21:18:24.727Z,100922.06
2024-04-30T21:20:53.999Z,100922.69
2024-04-30T21:23:21.540Z,100922.88
2024-04-30T21:25:53.346Z,100923.38
2024-04-30T21:28:20.008Z,100924.63
2024-04-30T21:30:51.639Z,100923.84
2024-04-30T21:33:18.850Z,100922.00
2024-04-30T21:35:48.626Z,100922.16
2024-04-30T21:38:16.598Z,100917.38
2024-04-30T21:40:45.966Z,100919.84
2024-04-30T21:43:15.231Z,100928.88
2024-04-30T21:45:44.503Z,100915.31
2024-04-30T21:48:11.384Z,100920.31
2024-04-30T21:50:40.634Z,100914.13
2024-04-30T21:53:07.412Z,100906.91
2024-04-30T21:55:36.659Z,100905.66
2024-04-30T21:58:03.538Z,100905.72
2024-04-30T22:00:35.637Z,100908.41
2024-04-30T22:03:03.551Z,100915.38
2024-04-30T22:05:33.924Z,100903.72
2024-04-30T22:08:00.693Z,100908.44
2024-04-30T22:10:29.897Z,100910.41
2024-04-30T22:12:56.780Z,100910.72
2024-04-30T22:15:26.162Z,100919.78
2024-04-30T22:17:55.494Z,100915.22
2024-04-30T22:20:24.805Z,100907.50
2024-04-30T22:22:51.494Z,100899.34
2024-04-30T22:25:20.738Z,100906.56
2024-04-30T22:27:47.419Z,100911.44
2024-04-30T22:30:20.065Z,100910.25
2024-04-30T22:32:47.378Z,100906.09
2024-04-30T22:35:19.394Z,100909.56
2024-04-30T22:37:46.027Z,100900.56
2024-04-30T22:40:15.414Z,100909.44
2024-04-30T22:42:42.227Z,100911.41
2024-04-30T22:45:11.507Z,100921.72
2024-04-30T22:47:38.334Z,100907.69
2024-04-30T22:50:07.865Z,100904.59
2024-04-30T22:52:37.103Z,100907.22
2024-04-30T22:55:06.896Z,100901.41
2024-04-30T22:57:36.235Z,100907.16
2024-04-30T23:00:03.963Z,100902.72
2024-04-30T23:02:33.224Z,100900.22
2024-04-30T23:05:00.212Z,100897.88
2024-04-30T23:07:29.503Z,100895.78
2024-04-30T23:09:58.711Z,100891.44
2024-04-30T23:12:28.097Z,100901.22
2024-04-30T23:14:54.948Z,100901.97
2024-04-30T23:17:24.245Z,100905.81
2024-04-30T23:19:50.956Z,100895.31
2024-04-30T23:22:23.402Z,100888.91
2024-04-30T23:24:50.077Z,100895.94
2024-04-30T23:27:22.222Z,100888.19
2024-04-30T23:29:48.954Z,100886.72
2024-04-30T23:32:18.351Z,100879.59
2024-04-30T23:34:44.977Z,100887.69
2024-04-30T23:37:14.202Z,100884.66
2024-04-30T23:39:40.923Z,100892.75
2024-04-30T23:42:13.761Z,100890.81
2024-04-30T23:44:46.221Z,100884.53
2024-04-30T23:47:15.448Z,100878.84
2024-04-30T23:49:42.233Z,100882.28
2024-04-30T23:52:11.491Z,100872.66
2024-04-30T23:54:38.322Z,100871.31
2024-04-30T23:57:08.210Z,100865.38
2024-04-30T23:59:34.897Z,100871.44
